Time;durP1;ratioP1;P1;durP2;ratioP2;P2;SDS_P1;SDS_P2;PMS_P1;PMS_P2;Temp;Humidity;BMP_temperature;BMP_pressure;BME280_temperature;BME280_humidity;BME280_pressure;Samples;Min_cycle;Max_cycle;Signal;HPM_P1;HPM_P2
2022/11/18 06:31:25;;;;;;;;;1.00;0.00;;;;;;;;5314730;24;46317;-54
2022/11/18 06:33:50;;;;;;;;;4.00;2.67;;;;;;;;4715000;30;45573;-56
2022/11/18 06:36:15;;;;;;;;;5.00;3.00;;;;;;;;4712470;30;45413;-50
2022/11/18 06:38:40;;;;;;;;;1.33;1.33;;;;;;;;4710914;30;45404;-54
2022/11/18 06:41:06;;;;;;;;;5.67;1.67;;;;;;;;4705268;30;45439;-55
2022/11/18 06:43:40;;;;;;;;;3.00;3.00;;;;;;;;4702322;30;45464;-57
2022/11/18 06:48:51;;;;;;;;;3.00;1.00;;;;;;;;4705876;30;45613;-57
2022/11/18 06:51:16;;;;;;;;;1.67;1.33;;;;;;;;4708162;30;45843;-56
2022/11/18 06:53:41;;;;;;;;;3.00;1.67;;;;;;;;4716407;30;45399;-56
2022/11/18 06:56:08;;;;;;;;;2.00;2.00;;;;;;;;4711686;30;45458;-57
2022/11/18 06:58:33;;;;;;;;;3.00;2.00;;;;;;;;4717940;30;45295;-56
2022/11/18 07:01:07;;;;;;;;;2.33;1.00;;;;;;;;4721038;30;46029;-56
2022/11/18 07:03:33;;;;;;;;;2.00;2.00;;;;;;;;4711242;30;45520;-55
2022/11/18 07:05:58;;;;;;;;;2.00;1.00;;;;;;;;4717056;30;45608;-57
2022/11/18 07:08:23;;;;;;;;;1.33;1.33;;;;;;;;4711329;30;45577;-56
2022/11/18 07:10:52;;;;;;;;;2.00;2.00;;;;;;;;4718547;30;45372;-54
2022/11/18 07:13:17;;;;;;;;;1.33;1.33;;;;;;;;4712578;30;45425;-56
2022/11/18 07:15:42;;;;;;;;;1.00;0.67;;;;;;;;4716804;30;45953;-57
2022/11/18 07:18:07;;;;;;;;;2.00;2.00;;;;;;;;4708455;30;45838;-55
2022/11/18 07:20:33;;;;;;;;;3.33;2.00;;;;;;;;4709750;30;46419;-57
2022/11/18 07:22:58;;;;;;;;;2.67;2.00;;;;;;;;4709646;30;47454;-56
2022/11/18 07:25:23;;;;;;;;;3.00;1.00;;;;;;;;4714309;30;45443;-57
2022/11/18 07:27:49;;;;;;;;;1.00;1.00;;;;;;;;4712009;30;45475;-55
2022/11/18 07:30:14;;;;;;;;;4.00;2.00;;;;;;;;4718100;30;46375;-56
2022/11/18 07:32:39;;;;;;;;;4.00;2.00;;;;;;;;4710622;30;47088;-54
2022/11/18 07:35:04;;;;;;;;;2.67;2.33;;;;;;;;4709862;30;45478;-55
2022/11/18 07:37:30;;;;;;;;;2.00;2.00;;;;;;;;4698389;30;45416;-56
2022/11/18 07:39:55;;;;;;;;;3.00;2.00;;;;;;;;4709643;30;46193;-55
2022/11/18 07:42:20;;;;;;;;;3.00;1.67;;;;;;;;4718357;30;45381;-55
2022/11/18 07:44:45;;;;;;;;;7.00;5.67;;;;;;;;4716854;30;46727;-54
2022/11/18 07:47:10;;;;;;;;;4.00;1.00;;;;;;;;4714085;30;45408;-56
2022/11/18 07:49:35;;;;;;;;;4.00;3.00;;;;;;;;4714914;30;45640;-56
2022/11/18 07:52:01;;;;;;;;;3.67;3.33;;;;;;;;4712296;30;45576;-55
2022/11/18 07:54:26;;;;;;;;;2.67;2.67;;;;;;;;4714278;30;45332;-56
2022/11/18 07:56:51;;;;;;;;;3.00;2.33;;;;;;;;4706506;30;45573;-55
2022/11/18 07:59:16;;;;;;;;;5.00;3.00;;;;;;;;4709568;30;45639;-55
2022/11/18 08:01:41;;;;;;;;;4.00;1.67;;;;;;;;4706021;30;45345;-56
2022/11/18 08:04:08;;;;;;;;;5.00;2.33;;;;;;;;4714616;30;45573;-57
2022/11/18 08:06:34;;;;;;;;;4.33;2.33;;;;;;;;4716310;30;45579;-57
2022/11/18 08:08:59;;;;;;;;;3.67;3.00;;;;;;;;4714658;30;46241;-57
2022/11/18 08:11:24;;;;;;;;;5.00;3.33;;;;;;;;4714197;30;45692;-57
2022/11/18 08:13:50;;;;;;;;;1.33;1.33;;;;;;;;4711858;30;45407;-53
2022/11/18 08:16:17;;;;;;;;;1.00;1.00;;;;;;;;4715121;30;45458;-57
2022/11/18 08:18:43;;;;;;;;;3.00;3.00;;;;;;;;4710983;30;46074;-56
2022/11/18 08:21:08;;;;;;;;;4.00;3.00;;;;;;;;4714239;30;45464;-55
2022/11/18 08:23:34;;;;;;;;;3.67;3.00;;;;;;;;4715610;30;45425;-56
2022/11/18 08:26:13;;;;;;;;;2.00;2.00;;;;;;;;4714802;30;45316;-55
2022/11/18 08:28:39;;;;;;;;;3.33;2.00;;;;;;;;4714253;30;46181;-56
2022/11/18 08:31:15;;;;;;;;;4.67;2.00;;;;;;;;4695004;30;45901;-56
2022/11/18 08:33:40;;;;;;;;;4.00;2.00;;;;;;;;4713787;30;45728;-57
2022/11/18 08:36:07;;;;;;;;;3.00;2.00;;;;;;;;4715440;30;45801;-55
2022/11/18 08:38:32;;;;;;;;;5.00;2.00;;;;;;;;4709488;30;46017;-56
2022/11/18 08:40:57;;;;;;;;;3.67;2.00;;;;;;;;4711425;30;45623;-55
2022/11/18 08:43:22;;;;;;;;;5.00;2.67;;;;;;;;4719935;30;45495;-55
2022/11/18 08:45:47;;;;;;;;;4.33;3.33;;;;;;;;4709956;30;45494;-57
2022/11/18 08:48:13;;;;;;;;;3.00;2.67;;;;;;;;4714974;30;45957;-55
2022/11/18 08:50:38;;;;;;;;;2.00;2.00;;;;;;;;4709901;30;45716;-57
2022/11/18 08:53:03;;;;;;;;;5.00;3.67;;;;;;;;4714333;30;45573;-56
2022/11/18 08:55:28;;;;;;;;;3.67;3.00;;;;;;;;4717673;30;45442;-56
2022/11/18 08:57:53;;;;;;;;;2.67;2.00;;;;;;;;4717041;30;45502;-58
2022/11/18 09:00:19;;;;;;;;;6.33;3.00;;;;;;;;4712328;30;45480;-57
2022/11/18 09:02:44;;;;;;;;;4.00;2.00;;;;;;;;4713042;30;45381;-57
2022/11/18 09:05:09;;;;;;;;;8.00;3.00;;;;;;;;4718825;30;45429;-56
2022/11/18 09:07:34;;;;;;;;;4.00;3.00;;;;;;;;4712983;30;46217;-55
2022/11/18 09:09:59;;;;;;;;;0.00;0.00;;;;;;;;4709722;30;45474;-56
2022/11/18 09:12:25;;;;;;;;;2.67;1.33;;;;;;;;4717437;30;45254;-55
2022/11/18 09:14:50;;;;;;;;;1.67;1.00;;;;;;;;4712372;30;45492;-56
2022/11/18 09:17:15;;;;;;;;;2.00;2.00;;;;;;;;4718738;30;46282;-55
2022/11/18 09:19:40;;;;;;;;;4.67;3.33;;;;;;;;4701553;30;45510;-57
2022/11/18 09:22:06;;;;;;;;;2.67;2.67;;;;;;;;4719180;30;45340;-55
2022/11/18 09:24:32;;;;;;;;;3.67;1.33;;;;;;;;4715279;30;45688;-56
2022/11/18 09:26:57;;;;;;;;;5.00;2.00;;;;;;;;4716793;30;45568;-57
2022/11/18 09:29:24;;;;;;;;;3.33;3.00;;;;;;;;4719359;30;45383;-56
2022/11/18 09:31:50;;;;;;;;;1.00;1.00;;;;;;;;4715113;30;45514;-57
2022/11/18 09:34:15;;;;;;;;;2.67;2.67;;;;;;;;4718453;30;45318;-54
2022/11/18 09:36:41;;;;;;;;;1.33;1.33;;;;;;;;4717007;30;45814;-57
2022/11/18 09:39:06;;;;;;;;;1.00;1.00;;;;;;;;4716639;30;45285;-58
2022/11/18 09:41:48;;;;;;;;;2.00;1.00;;;;;;;;4721534;30;45449;-57
2022/11/18 09:44:19;;;;;;;;;2.00;2.00;;;;;;;;4717022;30;45719;-58
2022/11/18 09:46:47;;;;;;;;;0.00;0.00;;;;;;;;4723912;30;45538;-59
2022/11/18 09:49:29;;;;;;;;;2.67;1.00;;;;;;;;4727740;30;45373;-58
2022/11/18 09:51:55;;;;;;;;;2.00;2.00;;;;;;;;4713961;30;45357;-58
2022/11/18 09:54:22;;;;;;;;;0.67;0.67;;;;;;;;4717805;30;45505;-58
2022/11/18 09:56:49;;;;;;;;;2.33;0.67;;;;;;;;4719260;30;46247;-58
2022/11/18 09:59:16;;;;;;;;;1.33;1.00;;;;;;;;4728964;30;45245;-58
2022/11/18 10:01:42;;;;;;;;;4.00;2.00;;;;;;;;4724857;30;45429;-58
2022/11/18 10:04:11;;;;;;;;;2.50;1.00;;;;;;;;4717974;30;45340;-58
2022/11/18 10:06:38;;;;;;;;;1.75;1.75;;;;;;;;4717528;30;45550;-58
2022/11/18 10:09:04;;;;;;;;;2.00;1.00;;;;;;;;4726877;30;45382;-59
2022/11/18 10:11:42;;;;;;;;;0.00;0.00;;;;;;;;4725386;30;45701;-58
2022/11/18 10:14:10;;;;;;;;;2.50;1.50;;;;;;;;4716215;30;45542;-58
2022/11/18 10:16:35;;;;;;;;;0.50;0.00;;;;;;;;4717732;30;45644;-59
2022/11/18 10:19:00;;;;;;;;;2.75;1.25;;;;;;;;4736111;30;45466;-59
2022/11/18 10:21:47;;;;;;;;;4.50;0.00;;;;;;;;4721110;30;45439;-59
2022/11/18 10:24:19;;;;;;;;;2.50;1.00;;;;;;;;4711438;30;45527;-58
2022/11/18 10:26:45;;;;;;;;;1.00;1.00;;;;;;;;4720092;30;46795;-59
2022/11/18 10:29:10;;;;;;;;;4.00;1.00;;;;;;;;4715338;30;45519;-58
2022/11/18 10:31:37;;;;;;;;;1.00;0.50;;;;;;;;4719198;30;45483;-59
2022/11/18 10:34:02;;;;;;;;;1.00;0.75;;;;;;;;4717740;30;45426;-58
2022/11/18 10:36:33;;;;;;;;;0.75;0.75;;;;;;;;4719078;30;46751;-58
2022/11/18 10:39:24;;;;;;;;;1.50;1.50;;;;;;;;4717679;30;45451;-58
2022/11/18 10:41:55;;;;;;;;;0.00;0.00;;;;;;;;4713255;30;45612;-58
2022/11/18 10:44:31;;;;;;;;;1.00;1.00;;;;;;;;4717684;30;45641;-58
2022/11/18 10:47:14;;;;;;;;;2.50;1.25;;;;;;;;4712431;30;46132;-58
2022/11/18 10:49:39;;;;;;;;;1.00;0.00;;;;;;;;4716220;30;45513;-58
2022/11/18 10:52:09;;;;;;;;;3.00;1.75;;;;;;;;4709814;30;46847;-59
2022/11/18 10:54:34;;;;;;;;;1.25;1.00;;;;;;;;4708362;30;45483;-58
2022/11/18 10:57:11;;;;;;;;;3.50;1.00;;;;;;;;4711066;30;46034;-58
2022/11/18 10:59:43;;;;;;;;;1.25;1.25;;;;;;;;4716330;30;45499;-57
2022/11/18 11:02:14;;;;;;;;;3.00;1.75;;;;;;;;4712974;30;45534;-58
2022/11/18 11:04:40;;;;;;;;;3.00;2.00;;;;;;;;4705545;30;45461;-57
2022/11/18 11:07:15;;;;;;;;;1.25;1.25;;;;;;;;4708949;30;45568;-58
2022/11/18 11:09:40;;;;;;;;;1.00;1.00;;;;;;;;4710623;30;45431;-58
2022/11/18 11:12:14;;;;;;;;;1.25;1.00;;;;;;;;4709126;30;45673;-58
2022/11/18 11:14:42;;;;;;;;;2.75;1.00;;;;;;;;4708161;30;45392;-57
2022/11/18 11:17:17;;;;;;;;;0.25;0.25;;;;;;;;4701826;30;46135;-55
2022/11/18 11:19:42;;;;;;;;;1.00;0.75;;;;;;;;4711422;30;45423;-58
2022/11/18 11:22:09;;;;;;;;;2.40;2.40;;;;;;;;4709797;30;45262;-57
2022/11/18 11:24:34;;;;;;;;;3.00;1.00;;;;;;;;4709626;30;45287;-57
2022/11/18 11:27:18;;;;;;;;;1.75;1.50;;;;;;;;4709108;30;45170;-57
2022/11/18 11:30:03;;;;;;;;;2.00;2.00;;;;;;;;4712730;30;45297;-58
2022/11/18 11:32:40;;;;;;;;;8.25;3.25;;;;;;;;4709454;30;45341;-56
2022/11/18 11:35:08;;;;;;;;;2.00;1.25;;;;;;;;4705979;30;45351;-56
2022/11/18 11:37:33;;;;;;;;;4.50;3.00;;;;;;;;4715594;30;46118;-58
2022/11/18 11:39:58;;;;;;;;;1.25;1.25;;;;;;;;4717235;30;45563;-57
2022/11/18 11:42:48;;;;;;;;;2.00;2.00;;;;;;;;4715545;30;45521;-57
2022/11/18 11:45:31;;;;;;;;;2.00;2.00;;;;;;;;4720479;30;45296;-56
2022/11/18 11:48:17;;;;;;;;;1.00;1.00;;;;;;;;4712667;30;46362;-56
2022/11/18 11:50:54;;;;;;;;;1.75;1.00;;;;;;;;4711694;30;45684;-57
2022/11/18 11:53:35;;;;;;;;;5.33;4.00;;;;;;;;4719423;30;45639;-57
2022/11/18 11:56:14;;;;;;;;;4.00;2.00;;;;;;;;4708252;30;45528;-56
2022/11/18 11:59:00;;;;;;;;;2.00;2.00;;;;;;;;4716388;30;46398;-55
2022/11/18 12:01:31;;;;;;;;;4.50;2.00;;;;;;;;4720006;30;45434;-57
2022/11/18 12:04:06;;;;;;;;;2.00;2.00;;;;;;;;4713875;30;45434;-57
2022/11/18 12:06:31;;;;;;;;;2.67;2.00;;;;;;;;4717498;30;45995;-55
2022/11/18 12:08:56;;;;;;;;;2.67;2.67;;;;;;;;4710317;30;45512;-55
2022/11/18 12:11:21;;;;;;;;;2.75;2.25;;;;;;;;4712996;30;45486;-55
2022/11/18 12:13:58;;;;;;;;;8.33;2.33;;;;;;;;4723653;30;45520;-57
2022/11/18 12:16:39;;;;;;;;;5.33;1.67;;;;;;;;4714901;30;45453;-55
2022/11/18 12:19:11;;;;;;;;;1.33;1.33;;;;;;;;4703552;30;47151;-55
2022/11/18 12:21:45;;;;;;;;;3.00;1.33;;;;;;;;4712845;30;45484;-58
2022/11/18 12:24:33;;;;;;;;;2.67;1.00;;;;;;;;4706099;30;45447;-58
2022/11/18 12:26:59;;;;;;;;;4.00;2.00;;;;;;;;4715505;30;45524;-57
2022/11/18 12:29:26;;;;;;;;;10.33;10.00;;;;;;;;4718803;30;45376;-57
2022/11/18 12:31:56;;;;;;;;;6.33;6.33;;;;;;;;4707242;30;45341;-57
2022/11/18 12:34:24;;;;;;;;;3.67;1.00;;;;;;;;4704244;30;45485;-55
2022/11/18 12:36:50;;;;;;;;;2.25;1.00;;;;;;;;4709430;30;45482;-57
2022/11/18 12:39:25;;;;;;;;;2.33;2.33;;;;;;;;4715398;30;46104;-57
2022/11/18 12:44:34;;;;;;;;;1.67;1.00;;;;;;;;4715605;30;45494;-57
2022/11/18 12:47:00;;;;;;;;;2.00;1.00;;;;;;;;4714328;30;45505;-56
2022/11/18 12:49:25;;;;;;;;;1.00;1.00;;;;;;;;4716081;30;46282;-57
2022/11/18 12:51:58;;;;;;;;;1.00;1.00;;;;;;;;4713080;30;45460;-57
2022/11/18 12:54:36;;;;;;;;;0.33;0.33;;;;;;;;4712018;30;45447;-55
2022/11/18 12:57:10;;;;;;;;;1.25;1.25;;;;;;;;4706483;30;45488;-56
2022/11/18 12:59:36;;;;;;;;;1.25;1.00;;;;;;;;4708844;30;47011;-55
2022/11/18 13:02:14;;;;;;;;;2.00;1.00;;;;;;;;4714120;30;45451;-55
2022/11/18 13:04:39;;;;;;;;;4.50;1.00;;;;;;;;4715783;30;45628;-58
2022/11/18 13:08:11;;;;;;;;;4.33;1.00;;;;;;;;4717018;30;45604;-56
2022/11/18 13:09:52;;;;;;;;;0.00;0.00;;;;;;;;4713470;30;46195;-55
2022/11/18 13:12:17;;;;;;;;;2.00;0.33;;;;;;;;4725649;30;45407;-57
2022/11/18 13:17:50;;;;;;;;;3.00;1.33;;;;;;;;4693642;30;45389;-57
2022/11/18 13:20:30;;;;;;;;;1.00;0.33;;;;;;;;4721441;30;45431;-57
2022/11/18 13:26:16;;;;;;;;;0.67;0.67;;;;;;;;4708469;30;45568;-58
2022/11/18 13:28:53;;;;;;;;;3.00;1.00;;;;;;;;4715283;30;45703;-59
2022/11/18 13:31:36;;;;;;;;;2.25;1.00;;;;;;;;4721401;30;45664;-57
2022/11/18 13:34:03;;;;;;;;;1.00;1.00;;;;;;;;4709423;30;45599;-58
2022/11/18 13:36:30;;;;;;;;;1.00;1.00;;;;;;;;4707525;30;46890;-58
2022/11/18 13:38:55;;;;;;;;;1.00;1.00;;;;;;;;4716456;30;45510;-58
2022/11/18 13:41:23;;;;;;;;;0.67;0.67;;;;;;;;4719951;30;46296;-58
2022/11/18 13:43:49;;;;;;;;;1.00;1.00;;;;;;;;4712697;30;46596;-58
2022/11/18 13:46:16;;;;;;;;;1.00;0.00;;;;;;;;4713749;30;47230;-58
2022/11/18 13:48:54;;;;;;;;;1.00;1.00;;;;;;;;4717657;30;45359;-58
2022/11/18 13:51:20;;;;;;;;;0.25;0.25;;;;;;;;4700299;30;47356;-59
2022/11/18 13:53:46;;;;;;;;;0.50;0.00;;;;;;;;4716948;30;45366;-58
2022/11/18 13:56:15;;;;;;;;;2.75;1.00;;;;;;;;4715411;30;45424;-58
2022/11/18 13:58:50;;;;;;;;;2.67;0.00;;;;;;;;4720652;30;45846;-58
2022/11/18 14:01:20;;;;;;;;;0.75;0.75;;;;;;;;4722219;30;46101;-58
2022/11/18 14:03:45;;;;;;;;;1.33;1.00;;;;;;;;4725832;30;45256;-58
2022/11/18 14:06:11;;;;;;;;;2.00;1.00;;;;;;;;4709619;30;45349;-58
2022/11/18 14:08:37;;;;;;;;;2.50;0.50;;;;;;;;4721691;30;46641;-58
2022/11/18 14:11:03;;;;;;;;;1.33;1.33;;;;;;;;4717016;30;46364;-59
2022/11/18 14:13:34;;;;;;;;;3.33;1.00;;;;;;;;4716260;30;45367;-58
2022/11/18 14:16:01;;;;;;;;;2.00;1.33;;;;;;;;4716439;30;45589;-58
2022/11/18 14:18:31;;;;;;;;;2.00;0.67;;;;;;;;4713575;30;45355;-58
2022/11/18 14:20:57;;;;;;;;;2.67;0.00;;;;;;;;4719956;30;46163;-57
2022/11/18 14:23:26;;;;;;;;;1.00;1.00;;;;;;;;4715082;30;45447;-58
2022/11/18 14:25:52;;;;;;;;;3.00;1.67;;;;;;;;4714896;30;45541;-58
2022/11/18 14:28:17;;;;;;;;;1.67;1.67;;;;;;;;4713023;30;45760;-58
2022/11/18 14:30:57;;;;;;;;;2.00;2.00;;;;;;;;4722338;30;45396;-58
2022/11/18 14:33:27;;;;;;;;;2.00;1.67;;;;;;;;4721346;30;45483;-58
2022/11/18 14:36:00;;;;;;;;;1.67;0.67;;;;;;;;4718542;30;45344;-58
2022/11/18 14:38:28;;;;;;;;;3.33;2.33;;;;;;;;4713321;30;45687;-58
2022/11/18 14:40:58;;;;;;;;;2.33;1.00;;;;;;;;4714976;30;46172;-58
2022/11/18 14:43:24;;;;;;;;;3.00;2.00;;;;;;;;4700129;30;45381;-58
2022/11/18 14:45:50;;;;;;;;;3.00;1.33;;;;;;;;4718991;30;45253;-57
2022/11/18 14:48:17;;;;;;;;;2.33;1.33;;;;;;;;4709034;30;45274;-58
2022/11/18 14:50:43;;;;;;;;;1.67;1.67;;;;;;;;4715010;30;45424;-58
2022/11/18 14:53:10;;;;;;;;;0.67;0.67;;;;;;;;4715993;30;45440;-58
2022/11/18 14:55:35;;;;;;;;;1.67;1.67;;;;;;;;4707363;30;45969;-58
2022/11/18 14:58:00;;;;;;;;;0.67;0.67;;;;;;;;4717243;30;45647;-58
2022/11/18 15:00:25;;;;;;;;;3.33;2.00;;;;;;;;4710225;30;45903;-58
2022/11/18 15:02:51;;;;;;;;;1.33;1.33;;;;;;;;4699340;30;45450;-58
2022/11/18 15:05:16;;;;;;;;;3.00;1.67;;;;;;;;4714683;30;45435;-59
2022/11/18 15:07:41;;;;;;;;;2.67;2.00;;;;;;;;4722429;30;45562;-58
2022/11/18 15:10:06;;;;;;;;;2.00;2.00;;;;;;;;4720754;30;47381;-58
2022/11/18 15:12:32;;;;;;;;;2.33;1.00;;;;;;;;4720718;30;45557;-58
2022/11/18 15:14:57;;;;;;;;;1.00;1.00;;;;;;;;4721983;30;45549;-59
2022/11/18 15:17:22;;;;;;;;;1.67;1.00;;;;;;;;4729208;30;45387;-59
2022/11/18 15:19:47;;;;;;;;;0.67;0.67;;;;;;;;4715182;30;46788;-58
2022/11/18 15:22:12;;;;;;;;;1.67;1.67;;;;;;;;4716243;30;45690;-58
2022/11/18 15:24:37;;;;;;;;;1.00;1.00;;;;;;;;4724577;30;45667;-58
2022/11/18 15:27:04;;;;;;;;;1.67;1.33;;;;;;;;4719125;30;45231;-58
2022/11/18 15:29:29;;;;;;;;;1.00;1.00;;;;;;;;4723908;30;46344;-58
2022/11/18 15:31:54;;;;;;;;;2.00;0.67;;;;;;;;4718504;30;45420;-58
2022/11/18 15:34:19;;;;;;;;;0.00;0.00;;;;;;;;4719590;30;45599;-57
2022/11/18 15:36:45;;;;;;;;;0.00;0.00;;;;;;;;4717141;30;45607;-58
2022/11/18 15:39:10;;;;;;;;;3.67;1.00;;;;;;;;4720566;30;46802;-58
2022/11/18 15:41:37;;;;;;;;;1.00;1.00;;;;;;;;4720696;30;45468;-58
2022/11/18 15:44:02;;;;;;;;;3.33;1.67;;;;;;;;4719369;30;45440;-59
2022/11/18 15:46:28;;;;;;;;;1.00;1.00;;;;;;;;4723273;30;45452;-57
2022/11/18 15:48:54;;;;;;;;;3.00;2.00;;;;;;;;4728237;30;45997;-57
2022/11/18 15:51:20;;;;;;;;;1.00;1.00;;;;;;;;4718914;30;45621;-58
2022/11/18 15:53:45;;;;;;;;;2.00;1.00;;;;;;;;4711677;30;45498;-58
2022/11/18 15:56:19;;;;;;;;;1.67;1.67;;;;;;;;4714800;30;45776;-57
2022/11/18 15:58:54;;;;;;;;;0.33;0.33;;;;;;;;4709191;30;45838;-58
2022/11/18 16:01:19;;;;;;;;;1.00;1.00;;;;;;;;4717656;30;45629;-58
2022/11/18 16:03:45;;;;;;;;;1.33;1.00;;;;;;;;4715512;30;45381;-59
2022/11/18 16:06:10;;;;;;;;;3.33;1.00;;;;;;;;4716151;30;45418;-58
2022/11/18 16:08:35;;;;;;;;;1.33;0.33;;;;;;;;4720301;30;45283;-58
2022/11/18 16:13:45;;;;;;;;;4.00;4.00;;;;;;;;4716490;30;45358;-58
2022/11/18 16:16:19;;;;;;;;;2.67;2.67;;;;;;;;4718233;30;45324;-58
2022/11/18 16:18:45;;;;;;;;;1.00;1.00;;;;;;;;4713402;30;46097;-58
2022/11/18 16:21:10;;;;;;;;;0.00;0.00;;;;;;;;4713112;30;45453;-58
2022/11/18 16:23:35;;;;;;;;;2.00;0.33;;;;;;;;4716036;30;45356;-56
2022/11/18 16:26:00;;;;;;;;;2.00;1.00;;;;;;;;4716871;30;45552;-59
2022/11/18 16:28:26;;;;;;;;;1.00;1.00;;;;;;;;4712572;30;47140;-59
2022/11/18 16:33:35;;;;;;;;;1.00;1.00;;;;;;;;4717225;30;45565;-58
2022/11/18 16:36:00;;;;;;;;;3.67;2.00;;;;;;;;4712296;30;46204;-58
2022/11/18 16:38:25;;;;;;;;;3.00;3.00;;;;;;;;4720432;30;45296;-58
2022/11/18 16:40:55;;;;;;;;;5.67;2.33;;;;;;;;4716999;30;45780;-59
2022/11/18 16:43:20;;;;;;;;;2.67;1.00;;;;;;;;4717093;30;45618;-54
2022/11/18 16:45:52;;;;;;;;;2.00;2.00;;;;;;;;4715870;30;45453;-55
2022/11/18 16:48:18;;;;;;;;;4.00;1.67;;;;;;;;4713684;30;45253;-56
2022/11/18 16:50:43;;;;;;;;;2.00;2.00;;;;;;;;4699619;30;45380;-56
2022/11/18 16:53:09;;;;;;;;;3.00;3.00;;;;;;;;4707637;30;45221;-57
2022/11/18 16:55:34;;;;;;;;;2.00;2.00;;;;;;;;4708486;30;46297;-56
2022/11/18 16:57:59;;;;;;;;;2.33;2.00;;;;;;;;4713781;30;45558;-57
2022/11/18 17:00:24;;;;;;;;;6.33;2.67;;;;;;;;4712504;30;45494;-57
2022/11/18 17:02:49;;;;;;;;;5.00;3.00;;;;;;;;4715570;30;45339;-56
2022/11/18 17:05:15;;;;;;;;;3.00;3.00;;;;;;;;4714201;30;45630;-57
2022/11/18 17:07:40;;;;;;;;;3.00;3.00;;;;;;;;4715411;30;45352;-57
2022/11/18 17:10:18;;;;;;;;;2.33;2.33;;;;;;;;4698979;30;45371;-56
2022/11/18 17:12:43;;;;;;;;;4.67;4.67;;;;;;;;4715174;30;45528;-57
2022/11/18 17:15:08;;;;;;;;;3.00;2.00;;;;;;;;4713313;30;45289;-57
2022/11/18 17:17:34;;;;;;;;;9.00;5.67;;;;;;;;4711158;30;45520;-57
2022/11/18 17:19:59;;;;;;;;;4.00;4.00;;;;;;;;4712254;30;45296;-57
2022/11/18 17:22:24;;;;;;;;;5.67;5.00;;;;;;;;4703685;30;45466;-59
2022/11/18 17:24:50;;;;;;;;;5.00;5.00;;;;;;;;4711880;30;45842;-56
2022/11/18 17:27:15;;;;;;;;;5.33;5.00;;;;;;;;4715830;30;46916;-56
2022/11/18 17:29:40;;;;;;;;;3.67;3.67;;;;;;;;4713174;30;45313;-56
2022/11/18 17:32:05;;;;;;;;;7.00;6.00;;;;;;;;4716726;30;45362;-56
2022/11/18 17:34:30;;;;;;;;;5.00;5.00;;;;;;;;4712396;30;45565;-57
2022/11/18 17:36:55;;;;;;;;;4.67;4.67;;;;;;;;4706411;30;46181;-56
2022/11/18 17:39:21;;;;;;;;;5.00;4.33;;;;;;;;4715618;30;45434;-54
2022/11/18 17:44:30;;;;;;;;;9.67;8.33;;;;;;;;4717310;30;45588;-56
2022/11/18 17:46:55;;;;;;;;;9.00;7.67;;;;;;;;4709531;30;46022;-55
2022/11/18 17:49:21;;;;;;;;;8.00;7.00;;;;;;;;4718911;30;45446;-57
2022/11/18 17:51:46;;;;;;;;;7.33;5.00;;;;;;;;4710911;30;45509;-58
2022/11/18 17:54:13;;;;;;;;;6.00;5.00;;;;;;;;4716839;30;45739;-56
2022/11/18 17:56:38;;;;;;;;;6.00;5.00;;;;;;;;4714387;30;46321;-57
2022/11/18 17:59:03;;;;;;;;;10.00;6.33;;;;;;;;4717847;30;45416;-56
2022/11/18 18:01:28;;;;;;;;;6.00;6.00;;;;;;;;4716273;30;45503;-57
2022/11/18 18:03:53;;;;;;;;;7.00;5.00;;;;;;;;4709630;30;45344;-57
2022/11/18 18:06:20;;;;;;;;;3.00;3.00;;;;;;;;4711155;30;45622;-56
2022/11/18 18:08:45;;;;;;;;;5.00;5.00;;;;;;;;4695347;30;45439;-56
2022/11/18 18:11:15;;;;;;;;;7.00;4.00;;;;;;;;4711419;30;45496;-57
2022/11/18 18:16:25;;;;;;;;;7.00;5.67;;;;;;;;4704492;30;45363;-57
2022/11/18 18:18:50;;;;;;;;;4.67;4.67;;;;;;;;4712518;30;45443;-57
2022/11/18 18:21:16;;;;;;;;;10.00;7.00;;;;;;;;4708404;30;45422;-57
2022/11/18 18:23:41;;;;;;;;;6.00;6.00;;;;;;;;4715708;30;45499;-57
2022/11/18 18:26:07;;;;;;;;;10.00;7.00;;;;;;;;4718188;30;46474;-57
2022/11/18 18:28:33;;;;;;;;;7.00;6.00;;;;;;;;4713078;30;45527;-57
2022/11/18 18:31:03;;;;;;;;;10.67;9.00;;;;;;;;4706516;30;45371;-57
2022/11/18 18:33:28;;;;;;;;;10.00;10.00;;;;;;;;4705573;30;45427;-56
2022/11/18 18:35:57;;;;;;;;;16.00;11.67;;;;;;;;4716879;30;46092;-56
2022/11/18 18:38:22;;;;;;;;;12.67;10.33;;;;;;;;4711848;30;45545;-59
2022/11/18 18:40:48;;;;;;;;;13.33;11.00;;;;;;;;4710151;30;45379;-58
2022/11/18 18:43:13;;;;;;;;;16.33;12.00;;;;;;;;4714934;30;45353;-58
2022/11/18 18:48:22;;;;;;;;;18.00;14.00;;;;;;;;4712733;30;45293;-58
2022/11/18 18:50:47;;;;;;;;;17.00;15.00;;;;;;;;4718730;30;45216;-59
2022/11/18 18:53:13;;;;;;;;;13.67;12.00;;;;;;;;4718404;30;45570;-58
2022/11/18 18:55:38;;;;;;;;;17.67;16.33;;;;;;;;4724502;30;47014;-58
2022/11/18 18:58:03;;;;;;;;;16.33;16.00;;;;;;;;4716791;30;45500;-57
2022/11/18 19:00:29;;;;;;;;;12.33;12.33;;;;;;;;4711128;30;45333;-58
2022/11/18 19:02:54;;;;;;;;;12.00;10.33;;;;;;;;4718649;30;45451;-57
2022/11/18 19:05:19;;;;;;;;;11.67;10.00;;;;;;;;4717795;30;45649;-58
2022/11/18 19:07:44;;;;;;;;;10.67;9.33;;;;;;;;4715600;30;45222;-57
2022/11/18 19:10:09;;;;;;;;;11.00;8.00;;;;;;;;4721613;30;45919;-58
2022/11/18 19:12:50;;;;;;;;;11.00;10.00;;;;;;;;4714484;30;45627;-57
2022/11/18 19:15:15;;;;;;;;;14.67;12.00;;;;;;;;4720449;30;46281;-58
2022/11/18 19:17:40;;;;;;;;;12.00;10.67;;;;;;;;4716795;30;45439;-57
2022/11/18 19:22:51;;;;;;;;;16.67;14.00;;;;;;;;4718606;30;45528;-58
2022/11/18 19:25:16;;;;;;;;;17.00;16.67;;;;;;;;4719916;30;46319;-58
2022/11/18 19:27:41;;;;;;;;;18.00;16.00;;;;;;;;4718286;30;45420;-57
2022/11/18 19:30:07;;;;;;;;;18.67;16.00;;;;;;;;4708720;30;45590;-56
2022/11/18 19:32:39;;;;;;;;;18.33;16.33;;;;;;;;4722175;30;45529;-57
2022/11/18 19:35:05;;;;;;;;;11.33;10.00;;;;;;;;4723168;30;45357;-57
2022/11/18 19:37:31;;;;;;;;;18.33;16.33;;;;;;;;4711104;30;45597;-57
2022/11/18 19:39:57;;;;;;;;;16.67;15.67;;;;;;;;4724032;30;46278;-58
2022/11/18 19:42:23;;;;;;;;;16.67;14.33;;;;;;;;4721198;30;46483;-57
2022/11/18 19:44:48;;;;;;;;;17.00;15.00;;;;;;;;4722784;30;46978;-57
2022/11/18 19:47:13;;;;;;;;;22.33;18.00;;;;;;;;4723345;30;45632;-59
2022/11/18 19:49:39;;;;;;;;;18.33;15.00;;;;;;;;4724498;30;45599;-58
2022/11/18 19:52:04;;;;;;;;;19.67;18.00;;;;;;;;4702392;30;45455;-59
2022/11/18 19:54:29;;;;;;;;;16.00;15.67;;;;;;;;4714459;30;45533;-57
2022/11/18 19:56:54;;;;;;;;;21.00;17.00;;;;;;;;4718288;30;45285;-59
2022/11/18 19:59:19;;;;;;;;;15.00;12.00;;;;;;;;4720986;30;45514;-58
2022/11/18 20:01:44;;;;;;;;;14.67;14.00;;;;;;;;4716668;30;45526;-59
2022/11/18 20:04:10;;;;;;;;;17.33;12.00;;;;;;;;4720394;30;45491;-59
2022/11/18 20:06:35;;;;;;;;;19.00;18.00;;;;;;;;4715324;30;45479;-59
2022/11/18 20:09:01;;;;;;;;;18.00;15.00;;;;;;;;4718721;30;45848;-59
2022/11/18 20:11:26;;;;;;;;;17.67;16.00;;;;;;;;4710957;30;45684;-59
2022/11/18 20:13:52;;;;;;;;;17.00;16.67;;;;;;;;4716894;30;45434;-59
2022/11/18 20:16:18;;;;;;;;;17.33;13.33;;;;;;;;4720153;30;45574;-59
2022/11/18 20:18:47;;;;;;;;;16.33;15.67;;;;;;;;4720656;30;45379;-59
2022/11/18 20:21:19;;;;;;;;;13.33;11.00;;;;;;;;4718134;30;45407;-59
2022/11/18 20:23:48;;;;;;;;;17.67;16.67;;;;;;;;4718194;30;46538;-58
2022/11/18 20:26:15;;;;;;;;;16.33;14.00;;;;;;;;4715451;30;45603;-59
2022/11/18 20:28:41;;;;;;;;;15.00;14.67;;;;;;;;4715190;30;45809;-59
2022/11/18 20:31:09;;;;;;;;;26.33;17.67;;;;;;;;4711918;30;45339;-58
2022/11/18 20:33:36;;;;;;;;;17.67;15.67;;;;;;;;4715743;30;45500;-59
2022/11/18 20:36:08;;;;;;;;;20.67;18.67;;;;;;;;4718853;30;45589;-59
2022/11/18 20:38:34;;;;;;;;;18.33;17.33;;;;;;;;4716582;30;45501;-58
2022/11/18 20:41:03;;;;;;;;;23.00;17.33;;;;;;;;4718219;30;45557;-59
2022/11/18 20:43:28;;;;;;;;;15.67;15.67;;;;;;;;4712394;30;48629;-57
2022/11/18 20:45:54;;;;;;;;;19.33;18.33;;;;;;;;4713200;30;45523;-59
2022/11/18 20:48:20;;;;;;;;;20.00;20.00;;;;;;;;4715389;30;45678;-58
2022/11/18 20:50:45;;;;;;;;;22.00;18.00;;;;;;;;4718029;30;45459;-59
2022/11/18 20:53:10;;;;;;;;;22.33;18.33;;;;;;;;4712968;30;45240;-58
2022/11/18 20:55:36;;;;;;;;;21.00;18.00;;;;;;;;4717149;30;45420;-58
2022/11/18 20:58:02;;;;;;;;;20.33;17.67;;;;;;;;4715224;30;45388;-59
2022/11/18 21:00:27;;;;;;;;;19.33;18.33;;;;;;;;4714827;30;45524;-59
2022/11/18 21:02:54;;;;;;;;;18.00;18.00;;;;;;;;4715739;30;46549;-58
2022/11/18 21:05:19;;;;;;;;;19.00;17.67;;;;;;;;4711086;30;45514;-59
2022/11/18 21:07:44;;;;;;;;;22.00;19.67;;;;;;;;4716745;30;45790;-58
2022/11/18 21:10:09;;;;;;;;;23.33;21.00;;;;;;;;4713375;30;45697;-58
2022/11/18 21:12:34;;;;;;;;;19.33;17.00;;;;;;;;4716066;30;46114;-57
2022/11/18 21:15:00;;;;;;;;;24.33;20.33;;;;;;;;4713770;30;45608;-59
2022/11/18 21:17:25;;;;;;;;;21.67;18.33;;;;;;;;4702337;30;45410;-58
2022/11/18 21:19:50;;;;;;;;;23.00;22.00;;;;;;;;4717743;30;45602;-59
2022/11/18 21:22:15;;;;;;;;;22.00;17.67;;;;;;;;4717413;30;45568;-59
2022/11/18 21:24:41;;;;;;;;;20.67;20.00;;;;;;;;4712790;30;45567;-58
2022/11/18 21:27:06;;;;;;;;;17.67;16.67;;;;;;;;4716216;30;45534;-58
2022/11/18 21:29:31;;;;;;;;;20.33;17.67;;;;;;;;4719456;30;45330;-58
2022/11/18 21:32:01;;;;;;;;;18.33;17.00;;;;;;;;4710714;30;46087;-59
2022/11/18 21:34:27;;;;;;;;;16.33;16.00;;;;;;;;4719016;30;45464;-59
2022/11/18 21:36:52;;;;;;;;;19.67;19.00;;;;;;;;4712856;30;45779;-57
2022/11/18 21:39:18;;;;;;;;;17.33;14.33;;;;;;;;4718233;30;45621;-58